Date,TemperatureHighF,TemperatureAvgF,TemperatureLowF,DewpointHighF,DewpointAvgF,DewpointLowF,HumidityHigh,HumidityAvg,HumidityLow,PressureMaxIn,PressureMinIn,WindSpeedMaxMPH,WindSpeedAvgMPH,GustSpeedMaxMPH,PrecipitationSumIn
2013-6-1,75,66,57,-100,-100,-100,0,0,100,0.00,40.00,0,-999,0,0.00
2013-6-2,86,62,53,-100,-100,-100,0,0,100,0.00,40.00,0,-999,0,0.00
2013-6-3,87,65,50,-100,-100,-100,0,0,100,0.00,40.00,0,-999,0,0.00
2013-6-4,71,62,57,-100,-100,-100,0,0,100,0.00,40.00,0,-999,0,0.00
2013-6-5,77,64,59,-100,-100,-100,0,0,100,0.00,40.00,0,-999,0,0.00
2013-6-6,80,63,53,-100,-100,-100,0,0,100,0.00,40.00,0,-999,0,0.00
2013-6-7,89,61,51,-100,-100,-100,0,0,100,0.00,40.00,0,-999,0,0.00
2013-6-8,82,63,53,-100,-100,-100,0,0,100,0.00,40.00,0,-999,0,0.00
2013-6-9,82,67,60,-100,-100,-100,0,0,100,0.00,40.00,0,-999,0,0.00
2013-6-10,104,68,57,-100,-100,-100,0,0,100,0.00,40.00,0,-999,0,0.00
2013-6-11,96,75,64,-100,-100,-100,0,0,100,0.00,40.00,0,-999,0,0.00
2013-6-12,95,77,66,-100,-100,-100,0,0,100,0.00,40.00,0,-999,0,0.00
2013-6-13,93,75,62,-100,-100,-100,0,0,100,0.00,40.00,0,-999,0,0.00
2013-6-14,84,69,66,-100,-100,-100,0,0,100,0.00,40.00,0,-999,0,0.00
2013-6-15,87,71,64,-100,-100,-100,0,0,100,0.00,40.00,0,-999,0,0.00
2013-6-16,100,77,68,-100,-100,-100,0,0,100,0.00,40.00,0,-999,0,0.00
2013-6-17,96,79,64,-100,-100,-100,0,0,100,0.00,40.00,0,-999,0,0.00
2013-6-18,96,76,64,-100,-100,-100,0,0,100,0.00,40.00,0,-999,0,0.00
2013-6-19,95,74,64,-100,-100,-100,0,0,100,0.00,40.00,0,-999,0,0.00
2013-6-20,91,73,68,-100,-100,-100,0,0,100,0.00,40.00,0,-999,0,0.00
2013-6-22,86,83,80,-100,-100,-100,0,0,100,0.00,40.00,0,-999,0,0.00
2013-6-23,84,76,66,-100,-100,-100,0,0,100,0.00,40.00,0,-999,0,0.00
2013-6-24,80,72,68,-100,-100,-100,0,0,100,0.00,40.00,0,-999,0,0.00
2013-6-25,89,76,69,-100,-100,-100,0,0,100,0.00,40.00,0,-999,0,0.00
2013-6-26,95,82,73,-100,-100,-100,0,0,100,0.00,40.00,0,-999,0,0.00
2013-6-27,91,77,68,-100,-100,-100,0,0,100,0.00,40.00,0,-999,0,0.00
2013-6-28,87,78,68,-100,-100,-100,0,0,100,0.00,40.00,0,-999,0,0.00
2013-6-29,78,70,66,-100,-100,-100,0,0,100,0.00,40.00,0,-999,0,0.00
2013-6-30,82,68,60,-100,-100,-100,0,0,100,0.00,40.00,0,-999,0,0.00